Terminal Aerodrome Forecast
Issued by NWS

Home | Current Version | Previous Version | Text Only | Print | Product List | Glossary On
Versions: 1 2 3 4 5 6 7 8 9 10 11 12 13 14 15 16 17 18 19
604
FTUS43 KABR 280535
TAFATY
TAF
KATY 280535Z 2806/2906 26010KT P6SM SKC
     FM280900 30010KT P6SM SKC
     FM281500 31024G34KT P6SM SCT070
     FM290000 31011KT P6SM VCSH BKN080=

USA.gov is the U.S. government's official web portal to all federal, state and local government web resources and services.